createdAt,value
2024-03-28T00:00:09.646Z,67.85
2024-03-28T00:05:32.271Z,67.57
2024-03-28T00:10:34.953Z,67.67
2024-03-28T00:15:38.227Z,67.56
2024-03-28T00:20:41.448Z,67.60
2024-03-28T00:25:52.431Z,67.64
2024-03-28T00:30:55.154Z,67.79
2024-03-28T00:35:57.816Z,67.97
2024-03-28T00:41:00.463Z,68.25
2024-03-28T00:46:03.920Z,68.14
2024-03-28T00:51:06.953Z,68.60
2024-03-28T00:56:09.689Z,68.55
2024-03-28T01:01:12.300Z,68.87
2024-03-28T01:06:14.916Z,69.19
2024-03-28T01:11:17.588Z,69.15
2024-03-28T01:16:20.307Z,69.54
2024-03-28T01:21:23.036Z,69.81
2024-03-28T01:26:25.658Z,69.91
2024-03-28T01:31:28.292Z,70.04
2024-03-28T01:36:30.918Z,70.09
2024-03-28T01:41:33.561Z,70.25
2024-03-28T01:46:43.564Z,70.54
2024-03-28T01:51:52.809Z,70.84
2024-03-28T01:56:55.917Z,70.75
2024-03-28T02:01:59.549Z,70.78
2024-03-28T02:07:02.725Z,70.76
2024-03-28T02:12:05.587Z,70.89
2024-03-28T02:17:08.240Z,71.20
2024-03-28T02:22:10.887Z,71.26
2024-03-28T02:27:13.522Z,71.45
2024-03-28T02:32:16.138Z,71.68
2024-03-28T02:37:20.651Z,71.73
2024-03-28T02:42:23.305Z,71.61
2024-03-28T02:47:26.063Z,71.80
2024-03-28T02:52:28.755Z,72.01
2024-03-28T02:57:31.553Z,72.14
2024-03-28T03:02:35.255Z,72.22
2024-03-28T03:07:37.897Z,72.14
2024-03-28T03:12:40.751Z,72.47
2024-03-28T03:17:43.425Z,72.52
2024-03-28T03:22:54.248Z,72.92
2024-03-28T03:28:17.250Z,72.70
2024-03-28T03:33:38.529Z,72.96
2024-03-28T03:38:41.175Z,72.99
2024-03-28T03:43:43.812Z,72.95
2024-03-28T03:48:46.470Z,72.91
2024-03-28T03:53:49.211Z,73.07
2024-03-28T03:58:51.857Z,73.28
2024-03-28T04:03:54.981Z,73.32
2024-03-28T04:08:57.601Z,73.26
2024-03-28T04:14:00.304Z,73.41
2024-03-28T04:19:03.192Z,73.15
2024-03-28T04:24:07.624Z,72.67
2024-03-28T04:29:10.251Z,72.36
2024-03-28T04:34:13.847Z,72.33
2024-03-28T04:39:16.518Z,71.93
2024-03-28T04:44:19.315Z,71.54
2024-03-28T04:49:22.099Z,71.40
2024-03-28T04:54:24.811Z,71.27
2024-03-28T04:59:27.437Z,70.99
2024-03-28T05:04:30.062Z,70.91
2024-03-28T05:09:33.080Z,70.69
2024-03-28T05:14:36.509Z,70.72
2024-03-28T05:19:39.503Z,70.49
2024-03-28T05:24:42.179Z,70.40
2024-03-28T05:29:44.824Z,70.45
2024-03-28T05:34:47.469Z,70.61
2024-03-28T05:39:50.229Z,70.66
2024-03-28T05:44:53.230Z,70.76
2024-03-28T05:49:55.911Z,71.25
2024-03-28T05:54:58.587Z,73.23
2024-03-28T06:00:01.277Z,75.56
2024-03-28T06:05:05.134Z,76.99
2024-03-28T06:10:08.124Z,77.91
2024-03-28T06:15:10.976Z,78.58
2024-03-28T06:20:14.101Z,79.33
2024-03-28T06:25:16.930Z,79.53
2024-03-28T06:30:26.874Z,79.51
2024-03-28T06:35:29.570Z,79.55
2024-03-28T06:40:33.823Z,79.19
2024-03-28T06:45:36.507Z,78.43
2024-03-28T06:50:42.964Z,77.68
2024-03-28T06:55:45.702Z,77.41
2024-03-28T07:00:48.427Z,76.42
2024-03-28T07:05:51.106Z,75.64
2024-03-28T07:10:53.782Z,74.54
2024-03-28T07:15:56.459Z,73.79
2024-03-28T07:20:59.066Z,73.43
2024-03-28T07:26:03.169Z,72.54
2024-03-28T07:31:06.184Z,71.79
2024-03-28T07:36:09.321Z,71.49
2024-03-28T07:41:12.259Z,71.07
2024-03-28T07:46:14.943Z,71.55
2024-03-28T07:51:17.668Z,71.78
2024-03-28T07:56:20.440Z,72.23
2024-03-28T08:01:23.496Z,71.98
2024-03-28T08:06:26.648Z,72.22
2024-03-28T08:11:29.313Z,72.51
2024-03-28T08:16:33.476Z,72.88
2024-03-28T08:21:36.894Z,73.30
2024-03-28T08:26:42.700Z,74.28
2024-03-28T08:31:45.368Z,75.02
2024-03-28T08:36:49.218Z,75.12
2024-03-28T08:41:55.355Z,75.53
2024-03-28T08:46:58.040Z,76.37
2024-03-28T08:52:00.737Z,76.42
2024-03-28T08:57:04.109Z,76.60
2024-03-28T09:02:11.459Z,75.26
2024-03-28T09:07:17.736Z,74.56
2024-03-28T09:12:21.331Z,73.29
2024-03-28T09:17:24.192Z,72.51
2024-03-28T09:22:29.460Z,71.62
2024-03-28T09:27:32.919Z,70.31
2024-03-28T09:32:35.567Z,69.82
2024-03-28T09:37:38.566Z,68.94
2024-03-28T09:42:46.141Z,68.45
2024-03-28T09:47:50.769Z,68.64
2024-03-28T09:52:56.315Z,67.43
2024-03-28T09:58:03.377Z,65.75
2024-03-28T10:03:51.696Z,64.50
2024-03-28T10:08:56.991Z,62.81
2024-03-28T10:14:00.802Z,62.84
2024-03-28T10:19:06.171Z,61.68
2024-03-28T10:24:17.701Z,61.23
2024-03-28T10:29:21.184Z,60.68
2024-03-28T10:34:23.894Z,60.62
2024-03-28T10:39:29.564Z,59.53
2024-03-28T10:44:37.149Z,59.26
2024-03-28T10:49:48.529Z,59.58
2024-03-28T10:54:57.276Z,59.47
2024-03-28T11:00:01.223Z,58.86
2024-03-28T11:05:09.573Z,58.85
2024-03-28T11:10:12.326Z,59.11
2024-03-28T11:15:22.411Z,58.92
2024-03-28T11:20:25.403Z,58.53
2024-03-28T11:25:27.963Z,58.21
2024-03-28T11:30:30.732Z,58.27
2024-03-28T11:35:34.131Z,58.50
2024-03-28T11:40:38.434Z,58.69
2024-03-28T11:46:04.747Z,58.41
2024-03-28T11:51:08.843Z,58.02
2024-03-28T11:56:15.554Z,58.10
2024-03-28T12:01:23.220Z,57.82
2024-03-28T12:06:25.948Z,58.15
2024-03-28T12:11:28.715Z,58.57
2024-03-28T12:16:31.496Z,58.72
2024-03-28T12:21:35.482Z,59.45
2024-03-28T12:26:38.396Z,59.68
2024-03-28T12:31:41.724Z,60.34
2024-03-28T12:36:44.659Z,60.97
2024-03-28T12:41:54.741Z,61.80
2024-03-28T12:46:57.376Z,63.10
2024-03-28T12:52:00.106Z,64.09
2024-03-28T12:57:04.798Z,65.51
2024-03-28T13:02:08.088Z,66.28
2024-03-28T13:07:13.509Z,67.24
2024-03-28T13:12:16.251Z,68.15
2024-03-28T13:17:19.666Z,68.99
2024-03-28T13:22:22.702Z,69.79
2024-03-28T13:27:43.368Z,70.70
2024-03-28T13:32:48.432Z,71.52
2024-03-28T13:37:51.305Z,72.60
2024-03-28T13:42:54.462Z,73.31
2024-03-28T13:47:58.065Z,73.49
2024-03-28T13:53:00.823Z,74.03
2024-03-28T13:58:03.822Z,74.52
2024-03-28T14:03:06.632Z,74.71
2024-03-28T14:08:10.665Z,74.64
2024-03-28T14:13:14.748Z,74.07
2024-03-28T14:18:20.161Z,73.93
2024-03-28T14:23:23.458Z,73.95
2024-03-28T14:28:26.393Z,73.92
2024-03-28T14:33:29.177Z,73.86
2024-03-28T14:38:34.817Z,73.62
2024-03-28T14:43:41.600Z,73.70
2024-03-28T14:48:44.737Z,73.54
2024-03-28T14:53:47.439Z,73.65
2024-03-28T14:58:50.365Z,73.86
2024-03-28T15:03:53.086Z,74.26
2024-03-28T15:08:55.756Z,74.60
2024-03-28T15:13:59.740Z,74.91
2024-03-28T15:19:02.418Z,75.20
2024-03-28T15:24:06.640Z,75.57
2024-03-28T15:29:09.412Z,76.21
2024-03-28T15:34:12.507Z,78.24
2024-03-28T15:39:16.730Z,79.97
2024-03-28T15:44:19.919Z,81.21
2024-03-28T15:49:22.699Z,83.06
2024-03-28T15:54:25.354Z,84.45
2024-03-28T15:59:28.069Z,85.98
2024-03-28T16:04:34.324Z,86.91
2024-03-28T16:09:37.025Z,88.21
2024-03-28T16:14:40.147Z,88.48
2024-03-28T16:19:42.971Z,89.48
2024-03-28T16:24:46.928Z,90.06
2024-03-28T16:29:52.768Z,90.60
2024-03-28T16:34:55.612Z,92.33
2024-03-28T16:39:58.425Z,90.75
2024-03-28T16:45:03.063Z,87.88
2024-03-28T16:50:05.979Z,87.74
2024-03-28T16:55:08.983Z,87.71
2024-03-28T17:00:14.122Z,87.87
2024-03-28T17:05:16.912Z,87.74
2024-03-28T17:10:19.957Z,88.08
2024-03-28T17:15:22.669Z,87.84
2024-03-28T17:20:27.570Z,87.75
2024-03-28T17:25:30.353Z,88.37
2024-03-28T17:30:33.069Z,88.46
2024-03-28T17:35:37.888Z,88.16
2024-03-28T17:40:40.973Z,88.01
2024-03-28T17:45:46.012Z,88.53
2024-03-28T17:50:49.307Z,89.15
2024-03-28T17:55:52.089Z,89.00
2024-03-28T18:01:02.054Z,89.32
2024-03-28T18:06:05.858Z,89.39
2024-03-28T18:11:08.549Z,88.50
2024-03-28T18:16:14.512Z,88.34
2024-03-28T18:21:17.211Z,87.96
2024-03-28T18:26:24.344Z,87.66
2024-03-28T18:31:28.663Z,87.54
2024-03-28T18:36:31.476Z,87.31
2024-03-28T18:41:34.535Z,87.39
2024-03-28T18:46:37.347Z,87.30
2024-03-28T18:51:40.487Z,87.27
2024-03-28T18:56:43.158Z,87.36
2024-03-28T19:01:45.897Z,87.52
2024-03-28T19:06:48.622Z,87.24
2024-03-28T19:11:51.268Z,87.40
2024-03-28T19:16:54.270Z,87.35
2024-03-28T19:21:57.688Z,87.53
2024-03-28T19:27:01.842Z,87.64
2024-03-28T19:32:05.939Z,87.51
2024-03-28T19:37:08.963Z,87.53
2024-03-28T19:42:12.756Z,87.93
2024-03-28T19:47:15.486Z,87.80
2024-03-28T19:52:18.205Z,87.98
2024-03-28T19:57:22.386Z,87.91
2024-03-28T20:02:29.105Z,88.13
2024-03-28T20:07:32.858Z,88.38
2024-03-28T20:12:36.130Z,88.26
2024-03-28T20:17:42.817Z,88.06
2024-03-28T20:22:45.371Z,88.47
2024-03-28T20:27:48.336Z,88.54
2024-03-28T20:32:51.007Z,88.98
2024-03-28T20:37:53.708Z,89.14
2024-03-28T20:42:56.395Z,89.43
2024-03-28T20:47:59.275Z,89.35
2024-03-28T20:53:02.059Z,89.90
2024-03-28T20:58:05.017Z,89.78
2024-03-28T21:03:07.679Z,90.30
2024-03-28T21:08:29.817Z,90.42
2024-03-28T21:13:32.455Z,90.53
2024-03-28T21:18:37.688Z,90.50
2024-03-28T21:23:40.852Z,90.54
2024-03-28T21:28:43.568Z,90.40
2024-03-28T21:33:46.274Z,90.57
2024-03-28T21:38:51.798Z,90.55
2024-03-28T21:43:56.749Z,90.25
2024-03-28T21:49:01.132Z,90.12
2024-03-28T21:54:05.280Z,90.84
2024-03-28T21:59:08.004Z,91.26
2024-03-28T22:04:11.046Z,91.13
2024-03-28T22:09:13.667Z,91.17
2024-03-28T22:14:16.459Z,91.19
2024-03-28T22:19:19.980Z,90.92
2024-03-28T22:24:23.450Z,90.86
2024-03-28T22:29:26.109Z,91.02
2024-03-28T22:34:30.376Z,91.12
2024-03-28T22:39:33.139Z,90.78
2024-03-28T22:44:35.869Z,90.26
2024-03-28T22:49:38.509Z,89.38
2024-03-28T22:54:42.112Z,88.82
2024-03-28T22:59:44.782Z,88.32
2024-03-28T23:04:49.430Z,87.98
2024-03-28T23:09:52.186Z,87.08
2024-03-28T23:14:54.789Z,86.82
2024-03-28T23:19:59.618Z,86.87
2024-03-28T23:25:02.313Z,86.74
2024-03-28T23:30:05.629Z,86.44
2024-03-28T23:35:08.917Z,86.47
2024-03-28T23:40:12.395Z,86.53
2024-03-28T23:45:15.125Z,86.65
2024-03-28T23:50:17.798Z,86.38
2024-03-28T23:55:23.248Z,86.50
